createdAt,value
2022-08-17T00:00:06.321Z,43.51
2022-08-17T00:02:38.314Z,43.32
2022-08-17T00:05:12.177Z,43.28
2022-08-17T00:07:39.868Z,43.48
2022-08-17T00:10:08.464Z,43.68
2022-08-17T00:12:44.333Z,43.52
2022-08-17T00:15:13.844Z,43.84
2022-08-17T00:17:42.138Z,43.74
2022-08-17T00:20:13.427Z,44.02
2022-08-17T00:22:42.687Z,43.98
2022-08-17T00:25:13.962Z,43.75
2022-08-17T00:27:41.997Z,43.58
2022-08-17T00:30:13.240Z,43.70
2022-08-17T00:33:13.956Z,44.06
2022-08-17T00:35:32.388Z,44.09
2022-08-17T00:38:00.094Z,44.05
2022-08-17T00:40:39.790Z,43.94
2022-08-17T00:43:16.486Z,43.89
2022-08-17T00:45:44.763Z,44.11
2022-08-17T00:48:29.547Z,43.92
2022-08-17T00:51:06.475Z,44.41
2022-08-17T00:53:36.564Z,44.32
2022-08-17T00:56:08.328Z,44.33
2022-08-17T00:58:37.325Z,44.33
2022-08-17T01:01:06.328Z,44.49
2022-08-17T01:03:35.973Z,44.49
2022-08-17T01:06:07.237Z,44.52
2022-08-17T01:08:36.703Z,44.53
2022-08-17T01:11:06.107Z,44.84
2022-08-17T01:13:40.785Z,44.57
2022-08-17T01:16:17.064Z,44.50
2022-08-17T01:18:46.691Z,44.65
2022-08-17T01:21:23.382Z,44.71
2022-08-17T01:23:52.554Z,44.65
2022-08-17T01:26:21.092Z,44.98
2022-08-17T01:28:54.729Z,45.06
2022-08-17T01:31:25.863Z,45.02
2022-08-17T01:33:53.947Z,44.95
2022-08-17T01:36:22.001Z,45.00
2022-08-17T01:38:49.688Z,45.12
2022-08-17T01:41:22.071Z,45.15
2022-08-17T01:43:53.182Z,45.30
2022-08-17T01:46:24.059Z,45.09
2022-08-17T01:48:51.837Z,45.12
2022-08-17T01:51:21.170Z,45.37
2022-08-17T01:53:51.847Z,45.43
2022-08-17T01:56:23.724Z,45.55
2022-08-17T01:58:51.811Z,45.60
2022-08-17T02:01:22.628Z,45.40
2022-08-17T02:03:59.123Z,45.17
2022-08-17T02:06:28.978Z,45.35
2022-08-17T02:09:02.271Z,45.61
2022-08-17T02:11:34.386Z,45.31
2022-08-17T02:14:04.035Z,45.73
2022-08-17T02:16:36.868Z,45.53
2022-08-17T02:19:05.705Z,45.76
2022-08-17T02:21:33.624Z,45.86
2022-08-17T02:24:01.484Z,46.02
2022-08-17T02:26:29.360Z,45.87
2022-08-17T02:28:58.399Z,45.49
2022-08-17T02:31:26.095Z,45.71
2022-08-17T02:34:03.487Z,45.57
2022-08-17T02:36:33.294Z,45.96
2022-08-17T02:39:01.618Z,45.70
2022-08-17T02:41:29.489Z,45.60
2022-08-17T02:43:58.625Z,45.88
2022-08-17T02:46:26.308Z,45.92
2022-08-17T02:48:53.981Z,45.83
2022-08-17T02:51:21.675Z,45.83
2022-08-17T02:53:49.379Z,45.72
2022-08-17T02:56:17.270Z,46.05
2022-08-17T02:58:45.100Z,45.80
2022-08-17T03:01:14.502Z,45.95
2022-08-17T03:03:42.476Z,45.89
2022-08-17T03:06:10.753Z,46.07
2022-08-17T03:08:38.581Z,46.09
2022-08-17T03:11:06.451Z,46.24
2022-08-17T03:13:34.096Z,46.34
2022-08-17T03:16:01.808Z,46.09
2022-08-17T03:18:30.858Z,46.56
2022-08-17T03:21:00.820Z,46.24
2022-08-17T03:23:29.632Z,46.62
2022-08-17T03:25:59.132Z,46.25
2022-08-17T03:28:28.179Z,46.61
2022-08-17T03:30:55.979Z,46.79
2022-08-17T03:33:23.804Z,46.73
2022-08-17T03:35:53.331Z,46.68
2022-08-17T03:38:21.818Z,46.82
2022-08-17T03:40:56.705Z,46.55
2022-08-17T03:43:29.243Z,46.73
2022-08-17T03:46:27.753Z,46.85
2022-08-17T03:49:17.908Z,47.02
2022-08-17T03:52:04.518Z,46.79
2022-08-17T03:54:49.832Z,46.74
2022-08-17T03:57:17.511Z,47.20
2022-08-17T03:59:45.389Z,47.14
2022-08-17T04:02:18.489Z,46.74
2022-08-17T04:04:46.599Z,47.15
2022-08-17T04:07:15.660Z,47.10
2022-08-17T04:09:43.810Z,46.79
2022-08-17T04:12:12.031Z,47.00
2022-08-17T04:14:52.641Z,47.76
2022-08-17T04:17:21.881Z,47.55
2022-08-17T04:19:49.564Z,47.19
2022-08-17T04:22:33.235Z,47.14
2022-08-17T04:25:07.740Z,47.77
2022-08-17T04:27:35.476Z,47.86
2022-08-17T04:30:03.527Z,48.32
2022-08-17T04:33:00.829Z,47.79
2022-08-17T04:35:21.166Z,47.92
2022-08-17T04:37:50.631Z,48.25
2022-08-17T04:40:37.699Z,48.55
2022-08-17T04:43:08.342Z,48.60
2022-08-17T04:45:40.129Z,48.70
2022-08-17T04:48:23.061Z,48.83
2022-08-17T04:50:55.991Z,49.18
2022-08-17T04:53:25.025Z,49.15
2022-08-17T04:55:53.350Z,48.91
2022-08-17T04:58:21.747Z,49.51
2022-08-17T05:00:49.579Z,49.75
2022-08-17T05:03:17.370Z,49.58
2022-08-17T05:05:49.729Z,49.79
2022-08-17T05:08:20.658Z,50.33
2022-08-17T05:10:50.122Z,50.74
2022-08-17T05:13:20.003Z,50.78
2022-08-17T05:15:49.078Z,50.56
2022-08-17T05:18:18.210Z,50.98
2022-08-17T05:20:46.768Z,50.17
2022-08-17T05:23:17.009Z,50.11
2022-08-17T05:25:47.567Z,50.06
2022-08-17T05:28:17.554Z,50.19
2022-08-17T05:30:48.693Z,50.76
2022-08-17T05:33:19.257Z,51.01
2022-08-17T05:35:49.509Z,50.85
2022-08-17T05:38:19.429Z,50.50
2022-08-17T05:40:47.619Z,50.29
2022-08-17T05:43:22.417Z,50.64
2022-08-17T05:45:57.394Z,50.55
2022-08-17T05:48:39.406Z,51.13
2022-08-17T05:51:32.922Z,51.33
2022-08-17T05:54:11.042Z,51.10
2022-08-17T05:57:00.718Z,51.35
2022-08-17T05:59:44.863Z,50.86
2022-08-17T06:02:21.940Z,50.69
2022-08-17T06:05:06.500Z,50.43
2022-08-17T06:07:42.507Z,50.70
2022-08-17T06:10:18.394Z,50.60
2022-08-17T06:13:01.697Z,50.75
2022-08-17T06:15:36.842Z,51.08
2022-08-17T06:18:09.167Z,51.33
2022-08-17T06:20:47.364Z,50.86
2022-08-17T06:23:25.773Z,50.75
2022-08-17T06:25:59.756Z,50.87
2022-08-17T06:28:36.408Z,50.81
2022-08-17T06:31:12.618Z,51.17
2022-08-17T06:33:44.782Z,51.26
2022-08-17T06:36:36.250Z,51.01
2022-08-17T06:39:21.965Z,51.39
2022-08-17T06:42:00.699Z,51.60
2022-08-17T06:44:47.635Z,51.64
2022-08-17T06:47:28.175Z,52.06
2022-08-17T06:50:06.008Z,51.98
2022-08-17T06:52:45.812Z,51.74
2022-08-17T06:55:21.306Z,51.89
2022-08-17T06:57:52.619Z,52.16
2022-08-17T07:00:23.899Z,51.99
2022-08-17T07:02:58.711Z,51.92
2022-08-17T07:05:33.207Z,51.72
2022-08-17T07:08:05.608Z,51.72
2022-08-17T07:10:39.212Z,51.62
2022-08-17T07:13:25.433Z,52.21
2022-08-17T07:16:00.703Z,53.18
2022-08-17T07:18:33.132Z,53.52
2022-08-17T07:21:09.280Z,52.49
2022-08-17T07:23:50.687Z,53.24
2022-08-17T07:26:18.416Z,53.28
2022-08-17T07:28:46.376Z,52.98
2022-08-17T07:31:17.224Z,53.03
2022-08-17T07:34:01.078Z,52.76
2022-08-17T07:36:33.680Z,52.39
2022-08-17T07:39:03.766Z,52.60
2022-08-17T07:41:57.349Z,52.65
2022-08-17T07:44:27.619Z,53.37
2022-08-17T07:47:13.162Z,53.58
2022-08-17T07:49:46.012Z,53.04
2022-08-17T07:52:51.345Z,52.56
2022-08-17T07:55:27.351Z,53.24
2022-08-17T07:57:57.398Z,54.24
2022-08-17T08:00:31.816Z,53.82
2022-08-17T08:03:16.532Z,53.73
2022-08-17T08:05:56.380Z,53.67
2022-08-17T08:08:32.744Z,54.40
2022-08-17T08:11:07.181Z,53.94
2022-08-17T08:13:40.346Z,54.01
2022-08-17T08:16:25.874Z,54.63
2022-08-17T08:18:57.745Z,54.46
2022-08-17T08:21:41.751Z,54.46
2022-08-17T08:24:31.957Z,54.71
2022-08-17T08:27:12.741Z,54.55
2022-08-17T08:29:47.992Z,54.76
2022-08-17T08:32:25.522Z,54.89
2022-08-17T08:35:03.717Z,54.88
2022-08-17T08:37:43.156Z,54.63
2022-08-17T08:40:21.555Z,53.70
2022-08-17T08:42:57.979Z,54.36
2022-08-17T08:45:33.541Z,53.81
2022-08-17T08:48:52.877Z,53.85
2022-08-17T08:51:13.263Z,54.10
2022-08-17T08:53:52.999Z,54.35
2022-08-17T08:56:28.871Z,54.00
2022-08-17T08:59:03.321Z,54.34
2022-08-17T09:01:38.767Z,54.11
2022-08-17T09:04:27.062Z,54.23
2022-08-17T09:07:05.943Z,54.57
2022-08-17T09:09:47.527Z,54.35
2022-08-17T09:12:22.569Z,54.37
2022-08-17T09:14:55.610Z,54.76
2022-08-17T09:17:44.207Z,54.49
2022-08-17T09:20:27.898Z,54.51
2022-08-17T09:23:04.005Z,54.13
2022-08-17T09:25:43.174Z,53.83
2022-08-17T09:28:20.152Z,54.04
2022-08-17T09:30:52.647Z,53.63
2022-08-17T09:33:26.892Z,53.40
2022-08-17T09:35:58.162Z,53.61
2022-08-17T09:38:33.758Z,53.64
2022-08-17T09:41:17.457Z,53.19
2022-08-17T09:43:54.579Z,53.50
2022-08-17T09:46:29.407Z,53.26
2022-08-17T09:49:03.350Z,53.68
2022-08-17T09:51:36.349Z,53.83
2022-08-17T09:54:37.069Z,53.93
2022-08-17T09:57:28.505Z,53.51
2022-08-17T10:00:13.243Z,53.46
2022-08-17T10:03:16.167Z,54.72
2022-08-17T10:05:51.236Z,54.40
2022-08-17T10:08:33.869Z,54.54
2022-08-17T10:11:13.705Z,54.51
2022-08-17T10:13:52.938Z,54.66
2022-08-17T10:16:31.320Z,54.52
2022-08-17T10:19:13.735Z,55.03
2022-08-17T10:22:14.608Z,55.26
2022-08-17T10:25:22.236Z,55.77
2022-08-17T10:27:55.563Z,55.78
2022-08-17T10:30:27.659Z,56.45
2022-08-17T10:32:59.222Z,56.96
2022-08-17T10:35:35.780Z,56.52
2022-08-17T10:38:29.387Z,56.23
2022-08-17T10:41:02.470Z,57.33
2022-08-17T10:43:57.885Z,57.57
2022-08-17T10:46:52.103Z,57.29
2022-08-17T10:49:30.326Z,58.65
2022-08-17T10:51:59.860Z,57.95
2022-08-17T10:54:49.588Z,58.53
2022-08-17T10:57:39.892Z,58.19
2022-08-17T11:00:15.244Z,58.92
2022-08-17T11:02:50.827Z,58.15
2022-08-17T11:05:46.711Z,57.66
2022-08-17T11:08:38.367Z,57.75
2022-08-17T11:11:24.231Z,57.62
2022-08-17T11:14:06.234Z,57.46
2022-08-17T11:16:47.889Z,57.29
2022-08-17T11:19:38.284Z,57.20
2022-08-17T11:22:37.997Z,57.07
2022-08-17T11:25:14.668Z,57.26
2022-08-17T11:27:44.003Z,57.26
2022-08-17T11:30:14.791Z,57.57
2022-08-17T11:32:47.627Z,57.40
2022-08-17T11:35:39.902Z,57.52
2022-08-17T11:38:19.552Z,57.42
2022-08-17T11:41:15.770Z,57.38
2022-08-17T11:44:01.980Z,56.88
2022-08-17T11:46:59.605Z,57.48
2022-08-17T11:50:15.277Z,56.96
2022-08-17T11:52:47.192Z,56.92
2022-08-17T11:55:50.890Z,57.23
2022-08-17T11:58:42.247Z,57.48
2022-08-17T12:01:13.553Z,57.11
2022-08-17T12:03:54.298Z,57.21
2022-08-17T12:06:45.055Z,57.21
2022-08-17T12:09:18.567Z,57.31
2022-08-17T12:12:11.265Z,57.42
2022-08-17T12:17:40.815Z,57.32
2022-08-17T12:20:15.028Z,57.05
2022-08-17T12:22:56.507Z,57.49
2022-08-17T12:25:34.767Z,57.55
2022-08-17T12:28:06.138Z,57.51
2022-08-17T12:30:35.928Z,57.56
2022-08-17T12:33:03.762Z,57.67
2022-08-17T12:35:35.332Z,57.69
2022-08-17T12:38:04.515Z,57.80
2022-08-17T12:40:34.674Z,58.13
2022-08-17T12:43:04.894Z,57.95
2022-08-17T12:45:35.970Z,58.24
2022-08-17T12:48:07.826Z,58.24
2022-08-17T12:50:37.197Z,57.84
2022-08-17T12:53:11.361Z,57.93
2022-08-17T12:55:40.465Z,58.20
2022-08-17T12:58:14.642Z,58.83
2022-08-17T13:00:48.583Z,58.54
2022-08-17T13:03:19.210Z,59.21
2022-08-17T13:05:58.464Z,58.99
2022-08-17T13:08:30.084Z,59.48
2022-08-17T13:11:01.359Z,58.92
2022-08-17T13:13:32.456Z,58.86
2022-08-17T13:16:02.933Z,58.92
2022-08-17T13:18:43.205Z,59.30
2022-08-17T13:21:19.148Z,59.53
2022-08-17T13:23:56.978Z,59.34
2022-08-17T13:26:30.495Z,59.34
2022-08-17T13:28:59.035Z,59.33
2022-08-17T13:31:50.406Z,59.18
2022-08-17T13:34:33.400Z,59.00
2022-08-17T13:37:28.814Z,59.19
2022-08-17T13:39:59.281Z,59.09
2022-08-17T13:42:52.282Z,59.03
2022-08-17T13:45:39.263Z,58.94
2022-08-17T13:48:14.453Z,59.00
2022-08-17T13:50:45.049Z,59.33
2022-08-17T13:53:21.981Z,59.42
2022-08-17T13:55:52.889Z,59.09
2022-08-17T13:58:24.690Z,59.20
2022-08-17T14:00:52.768Z,59.55
2022-08-17T14:03:21.503Z,59.30
2022-08-17T14:05:50.885Z,59.54
2022-08-17T14:08:21.766Z,59.38
2022-08-17T14:10:58.764Z,59.71
2022-08-17T14:13:28.645Z,59.13
2022-08-17T14:15:56.910Z,59.06
2022-08-17T14:18:55.401Z,59.39
2022-08-17T14:21:12.732Z,59.06
2022-08-17T14:23:40.870Z,59.18
2022-08-17T14:26:11.512Z,59.33
2022-08-17T14:28:53.586Z,59.30
2022-08-17T14:31:24.921Z,58.75
2022-08-17T14:33:53.023Z,58.92
2022-08-17T14:36:20.721Z,59.39
2022-08-17T14:38:48.439Z,59.19
2022-08-17T14:41:21.473Z,59.31
2022-08-17T14:43:51.348Z,59.75
2022-08-17T14:46:19.043Z,58.99
2022-08-17T14:48:46.891Z,59.08
2022-08-17T14:51:14.581Z,59.01
2022-08-17T14:53:42.622Z,58.70
2022-08-17T14:56:10.757Z,58.83
2022-08-17T14:58:38.939Z,58.67
2022-08-17T15:01:10.946Z,59.13
2022-08-17T15:03:40.808Z,58.91
2022-08-17T15:06:11.162Z,58.73
2022-08-17T15:08:40.264Z,58.84
2022-08-17T15:11:14.214Z,59.26
2022-08-17T15:13:52.001Z,59.32
2022-08-17T15:16:22.641Z,59.38
2022-08-17T15:18:52.631Z,59.57
2022-08-17T15:21:20.388Z,59.15
2022-08-17T15:23:48.102Z,59.34
2022-08-17T15:26:16.797Z,59.53
2022-08-17T15:28:44.494Z,59.61
2022-08-17T15:31:31.646Z,59.96
2022-08-17T15:34:00.766Z,59.94
2022-08-17T15:36:28.717Z,59.88
2022-08-17T15:38:56.415Z,59.74
2022-08-17T15:41:24.104Z,59.86
2022-08-17T15:43:51.842Z,59.75
2022-08-17T15:46:22.999Z,59.75
2022-08-17T15:48:52.970Z,59.80
2022-08-17T15:51:23.375Z,59.83
2022-08-17T15:53:53.554Z,60.44
2022-08-17T15:56:21.610Z,60.03
2022-08-17T15:58:50.223Z,60.09
2022-08-17T16:01:40.505Z,60.11
2022-08-17T16:04:30.184Z,60.57
2022-08-17T16:06:58.914Z,60.15
2022-08-17T16:09:26.625Z,60.42
2022-08-17T16:11:56.112Z,60.11
2022-08-17T16:14:33.812Z,59.82
2022-08-17T16:17:03.018Z,60.11
2022-08-17T16:19:32.493Z,60.06
2022-08-17T16:22:00.205Z,60.17
2022-08-17T16:24:27.910Z,60.06
2022-08-17T16:26:55.922Z,60.00
2022-08-17T16:29:23.646Z,60.17
2022-08-17T16:31:51.472Z,60.04
2022-08-17T16:34:19.619Z,59.88
2022-08-17T16:36:55.692Z,59.78
2022-08-17T16:39:25.725Z,60.12
2022-08-17T16:41:53.464Z,60.07
2022-08-17T16:44:22.549Z,59.81
2022-08-17T16:46:51.192Z,60.21
2022-08-17T16:49:25.799Z,60.11
2022-08-17T16:52:07.434Z,60.46
2022-08-17T16:54:35.914Z,60.36
2022-08-17T16:57:05.065Z,60.15
2022-08-17T16:59:41.978Z,60.23
2022-08-17T17:02:15.673Z,60.18
2022-08-17T17:04:51.210Z,59.75
2022-08-17T17:07:48.561Z,60.07
2022-08-17T17:10:18.396Z,59.92
2022-08-17T17:13:02.071Z,59.54
2022-08-17T17:15:46.350Z,59.57
2022-08-17T17:18:15.393Z,60.09
2022-08-17T17:20:49.905Z,59.76
2022-08-17T17:23:31.457Z,59.66
2022-08-17T17:26:10.967Z,59.90
2022-08-17T17:28:47.352Z,60.25
2022-08-17T17:31:16.309Z,60.07
2022-08-17T17:33:47.771Z,59.90
2022-08-17T17:36:25.173Z,60.15
2022-08-17T17:39:00.211Z,60.21
2022-08-17T17:41:33.911Z,59.88
2022-08-17T17:44:07.484Z,60.22
2022-08-17T17:46:39.234Z,60.36
2022-08-17T17:49:11.126Z,60.14
2022-08-17T17:52:08.551Z,60.29
2022-08-17T17:55:01.855Z,60.44
2022-08-17T17:57:39.299Z,60.11
2022-08-17T18:00:12.586Z,60.11
2022-08-17T18:03:02.035Z,60.13
2022-08-17T18:06:02.245Z,60.29
2022-08-17T18:08:47.882Z,60.03
2022-08-17T18:11:34.924Z,60.43
2022-08-17T18:14:15.338Z,60.36
2022-08-17T18:16:44.597Z,60.17
2022-08-17T18:19:14.172Z,60.32
2022-08-17T18:21:46.912Z,60.27
2022-08-17T18:24:15.387Z,60.37
2022-08-17T18:26:48.136Z,60.35
2022-08-17T18:29:31.160Z,60.11
2022-08-17T18:32:28.223Z,60.52
2022-08-17T18:34:58.822Z,60.51
2022-08-17T18:37:40.045Z,60.36
2022-08-17T18:40:33.232Z,60.15
2022-08-17T18:43:12.413Z,60.50
2022-08-17T18:45:45.627Z,60.52
2022-08-17T18:48:30.011Z,60.19
2022-08-17T18:51:03.086Z,60.08
2022-08-17T18:53:40.605Z,60.48
2022-08-17T18:56:25.604Z,60.14
2022-08-17T18:59:02.040Z,60.32
2022-08-17T19:01:42.071Z,60.31
2022-08-17T19:04:34.715Z,60.33
2022-08-17T19:07:26.619Z,59.99
2022-08-17T19:09:59.335Z,60.14
2022-08-17T19:12:32.446Z,60.18
2022-08-17T19:15:01.949Z,60.01
2022-08-17T19:17:38.470Z,60.10
2022-08-17T19:20:15.086Z,60.46
2022-08-17T19:22:57.356Z,60.41
2022-08-17T19:25:28.409Z,60.04
2022-08-17T19:28:21.504Z,60.31
2022-08-17T19:30:56.649Z,60.14
2022-08-17T19:33:25.795Z,60.26
2022-08-17T19:36:02.015Z,60.39
2022-08-17T19:38:46.703Z,60.18
2022-08-17T19:41:24.639Z,60.36
2022-08-17T19:44:06.645Z,60.30
2022-08-17T19:46:49.871Z,59.88
2022-08-17T19:49:40.301Z,59.85
2022-08-17T19:52:24.072Z,59.94
2022-08-17T19:54:58.875Z,59.96
2022-08-17T19:57:38.042Z,60.13
2022-08-17T20:00:11.140Z,60.19
2022-08-17T20:02:51.138Z,59.98
2022-08-17T20:05:23.601Z,59.85
2022-08-17T20:07:58.236Z,60.04
2022-08-17T20:10:36.416Z,59.91
2022-08-17T20:13:09.298Z,59.85
2022-08-17T20:15:41.715Z,59.96
2022-08-17T20:18:20.561Z,60.17
2022-08-17T20:20:56.545Z,60.11
2022-08-17T20:23:36.517Z,60.03
2022-08-17T20:26:17.147Z,60.10
2022-08-17T20:29:20.321Z,59.90
2022-08-17T20:32:19.854Z,59.77
2022-08-17T20:34:49.335Z,59.96
2022-08-17T20:37:31.026Z,59.92
2022-08-17T20:40:25.923Z,60.12
2022-08-17T20:42:53.908Z,60.05
2022-08-17T20:45:50.819Z,59.73
2022-08-17T20:48:36.978Z,60.16
2022-08-17T20:51:27.190Z,59.90
2022-08-17T20:54:23.765Z,59.81
2022-08-17T20:56:56.194Z,60.00
2022-08-17T20:59:59.414Z,60.07
2022-08-17T21:02:29.346Z,60.14
2022-08-17T21:05:35.547Z,60.30
2022-08-17T21:08:15.866Z,60.35
2022-08-17T21:10:46.808Z,60.02
2022-08-17T21:13:53.358Z,60.44
2022-08-17T21:16:45.585Z,60.20
2022-08-17T21:19:31.101Z,60.40
2022-08-17T21:22:13.201Z,60.49
2022-08-17T21:24:53.432Z,60.52
2022-08-17T21:27:33.733Z,60.47
2022-08-17T21:30:25.098Z,60.44
2022-08-17T21:33:20.803Z,60.69
2022-08-17T21:35:52.313Z,60.55
2022-08-17T21:38:24.099Z,60.72
2022-08-17T21:40:54.292Z,60.58
2022-08-17T21:43:27.601Z,60.68
2022-08-17T21:46:01.834Z,60.72
2022-08-17T21:48:32.171Z,60.48
2022-08-17T21:51:10.422Z,60.60
2022-08-17T21:53:44.650Z,60.79
2022-08-17T21:56:23.330Z,60.67
2022-08-17T21:58:57.108Z,60.69
2022-08-17T22:01:27.018Z,60.76
2022-08-17T22:03:58.459Z,60.55
2022-08-17T22:06:28.840Z,60.77
2022-08-17T22:09:02.946Z,60.84
2022-08-17T22:11:32.384Z,60.86
2022-08-17T22:14:05.099Z,61.05
2022-08-17T22:16:33.758Z,60.95
2022-08-17T22:19:01.739Z,60.99
2022-08-17T22:21:29.527Z,60.91
2022-08-17T22:24:06.048Z,61.04
2022-08-17T22:27:00.783Z,61.19
2022-08-17T22:29:47.211Z,61.08
2022-08-17T22:32:34.463Z,61.23
2022-08-17T22:35:41.778Z,61.28
2022-08-17T22:38:32.394Z,61.37
2022-08-17T22:41:34.467Z,61.28
2022-08-17T22:44:15.491Z,61.52
2022-08-17T22:46:52.774Z,61.39
2022-08-17T22:49:27.271Z,61.65
2022-08-17T22:52:04.412Z,61.96
2022-08-17T22:55:01.334Z,61.88
2022-08-17T22:57:51.443Z,61.87
2022-08-17T23:00:39.556Z,62.29
2022-08-17T23:03:14.156Z,62.24
2022-08-17T23:05:44.947Z,62.67
2022-08-17T23:08:13.613Z,62.81
2022-08-17T23:10:42.385Z,62.80
2022-08-17T23:13:12.510Z,62.61
2022-08-17T23:15:43.059Z,62.69
2022-08-17T23:18:10.776Z,62.65
2022-08-17T23:20:41.363Z,62.64
2022-08-17T23:23:09.979Z,62.58
2022-08-17T23:25:37.977Z,62.80
2022-08-17T23:28:07.839Z,62.55
2022-08-17T23:30:39.795Z,62.89
2022-08-17T23:33:10.732Z,62.82
2022-08-17T23:35:39.575Z,62.73
2022-08-17T23:38:09.636Z,63.22
2022-08-17T23:40:39.368Z,63.17
2022-08-17T23:43:17.565Z,63.21
2022-08-17T23:45:53.954Z,63.40
2022-08-17T23:48:35.115Z,63.47
2022-08-17T23:51:07.272Z,63.02
2022-08-17T23:53:36.712Z,63.06
2022-08-17T23:56:10.501Z,63.06
2022-08-17T23:58:39.403Z,63.06
